createdAt,value
2023-08-05T00:00:25.104Z,18.25
2023-08-05T00:01:56.731Z,18.23
2023-08-05T00:03:28.502Z,18.22
2023-08-05T00:05:00.219Z,18.24
2023-08-05T00:06:31.817Z,18.06
2023-08-05T00:08:03.498Z,18.05
2023-08-05T00:09:35.063Z,18.05
2023-08-05T00:11:06.718Z,18.19
2023-08-05T00:12:38.350Z,18.18
2023-08-05T00:14:09.940Z,18.28
2023-08-05T00:15:41.628Z,18.27
2023-08-05T00:17:13.261Z,18.30
2023-08-05T00:18:45.035Z,18.12
2023-08-05T00:20:16.753Z,18.12
2023-08-05T00:21:48.425Z,18.14
2023-08-05T00:23:20.693Z,18.21
2023-08-05T00:24:52.340Z,17.99
2023-08-05T00:26:23.949Z,18.10
2023-08-05T00:27:55.611Z,18.24
2023-08-05T00:29:27.174Z,18.17
2023-08-05T00:30:59.045Z,18.13
2023-08-05T00:32:31.332Z,18.03
2023-08-05T00:34:02.997Z,17.56
2023-08-05T00:35:34.690Z,17.47
2023-08-05T00:37:06.525Z,17.39
2023-08-05T00:38:38.181Z,17.62
2023-08-05T00:40:10.437Z,17.64
2023-08-05T00:41:42.088Z,17.62
2023-08-05T00:43:13.756Z,17.89
2023-08-05T00:44:46.126Z,18.07
2023-08-05T00:46:23.753Z,18.06
2023-08-05T00:47:56.507Z,18.11
2023-08-05T00:49:28.258Z,17.99
2023-08-05T00:51:00.955Z,17.79
2023-08-05T00:52:32.877Z,17.89
2023-08-05T00:54:05.052Z,17.85
2023-08-05T00:55:37.622Z,17.88
2023-08-05T00:57:11.659Z,17.80
2023-08-05T00:58:44.699Z,17.89
2023-08-05T01:00:16.382Z,17.82
2023-08-05T01:01:48.077Z,17.89
2023-08-05T01:03:19.803Z,17.80
2023-08-05T01:04:51.464Z,17.85
2023-08-05T01:06:25.080Z,17.52
2023-08-05T01:07:57.462Z,17.60
2023-08-05T01:09:29.196Z,17.71
2023-08-05T01:11:04.604Z,17.69
2023-08-05T01:12:36.238Z,17.64
2023-08-05T01:14:07.869Z,17.68
2023-08-05T01:15:40.250Z,17.43
2023-08-05T01:17:11.900Z,17.59
2023-08-05T01:18:44.265Z,17.64
2023-08-05T01:20:18.201Z,17.64
2023-08-05T01:22:18.926Z,17.59
2023-08-05T01:24:11.509Z,17.60
2023-08-05T01:25:43.723Z,17.66
2023-08-05T01:27:15.493Z,17.61
2023-08-05T01:28:47.287Z,17.72
2023-08-05T01:30:19.157Z,17.63
2023-08-05T01:31:52.280Z,17.31
2023-08-05T01:33:25.022Z,17.53
2023-08-05T01:34:58.110Z,17.12
2023-08-05T01:36:30.864Z,17.32
2023-08-05T01:38:02.454Z,17.39
2023-08-05T01:39:34.066Z,17.44
2023-08-05T01:41:05.682Z,17.59
2023-08-05T01:42:38.273Z,17.65
2023-08-05T01:44:09.862Z,17.60
2023-08-05T01:45:41.566Z,17.71
2023-08-05T01:47:13.086Z,17.57
2023-08-05T01:48:44.674Z,17.60
2023-08-05T01:50:16.384Z,17.60
2023-08-05T01:51:48.802Z,17.67
2023-08-05T01:53:20.341Z,17.48
2023-08-05T01:54:52.690Z,17.52
2023-08-05T01:56:24.234Z,17.47
2023-08-05T01:57:55.776Z,17.36
2023-08-05T01:59:27.429Z,17.49
2023-08-05T02:00:59.426Z,17.52
2023-08-05T02:02:31.184Z,17.86
2023-08-05T02:04:03.200Z,17.63
2023-08-05T02:05:34.825Z,17.26
2023-08-05T02:07:07.003Z,16.87
2023-08-05T02:08:38.551Z,16.61
2023-08-05T02:10:10.283Z,16.90
2023-08-05T02:11:41.872Z,16.54
2023-08-05T02:13:13.476Z,16.79
2023-08-05T02:14:45.077Z,17.10
2023-08-05T02:16:16.657Z,16.70
2023-08-05T02:17:48.509Z,17.02
2023-08-05T02:19:20.128Z,16.30
2023-08-05T02:20:52.964Z,16.35
2023-08-05T02:22:24.484Z,16.81
2023-08-05T02:23:56.198Z,16.99
2023-08-05T02:25:27.792Z,17.06
2023-08-05T02:26:59.402Z,16.99
2023-08-05T02:28:30.951Z,16.83
2023-08-05T02:30:02.563Z,16.72
2023-08-05T02:31:34.431Z,16.89
2023-08-05T02:33:06.032Z,16.95
2023-08-05T02:34:37.725Z,17.04
2023-08-05T02:36:09.580Z,16.87
2023-08-05T02:37:41.226Z,16.22
2023-08-05T02:39:13.306Z,16.46
2023-08-05T02:40:45.899Z,16.50
2023-08-05T02:42:17.461Z,16.56
2023-08-05T02:43:49.092Z,16.81
2023-08-05T02:45:20.803Z,16.83
2023-08-05T02:46:52.759Z,16.96
2023-08-05T02:48:25.814Z,17.00
2023-08-05T02:49:57.649Z,16.94
2023-08-05T02:51:29.711Z,16.88
2023-08-05T02:53:01.244Z,16.67
2023-08-05T02:54:32.870Z,16.54
2023-08-05T02:56:04.587Z,16.92
2023-08-05T02:57:36.162Z,16.73
2023-08-05T02:59:07.746Z,16.75
2023-08-05T03:00:39.392Z,16.42
2023-08-05T03:02:11.016Z,16.34
2023-08-05T03:03:42.662Z,16.42
2023-08-05T03:05:14.978Z,16.31
2023-08-05T03:06:46.722Z,16.40
2023-08-05T03:08:18.409Z,16.74
2023-08-05T03:09:50.130Z,17.21
2023-08-05T03:11:22.633Z,17.09
2023-08-05T03:12:54.225Z,16.96
2023-08-05T03:14:25.831Z,16.86
2023-08-05T03:15:57.494Z,17.08
2023-08-05T03:17:29.812Z,16.92
2023-08-05T03:19:01.423Z,17.02
2023-08-05T03:20:35.798Z,17.22
2023-08-05T03:22:15.724Z,17.09
2023-08-05T03:23:49.336Z,17.00
2023-08-05T03:25:22.933Z,17.01
2023-08-05T03:26:57.996Z,16.96
2023-08-05T03:28:29.660Z,17.00
2023-08-05T03:30:01.859Z,17.02
2023-08-05T03:31:33.939Z,17.14
2023-08-05T03:33:08.154Z,17.33
2023-08-05T03:34:40.714Z,17.35
2023-08-05T03:36:12.587Z,17.18
2023-08-05T03:37:46.124Z,17.12
2023-08-05T03:39:18.982Z,17.32
2023-08-05T03:40:51.390Z,17.32
2023-08-05T03:42:23.279Z,17.42
2023-08-05T03:43:54.919Z,17.45
2023-08-05T03:45:26.636Z,17.44
2023-08-05T03:46:58.945Z,17.45
2023-08-05T03:48:30.660Z,17.33
2023-08-05T03:50:02.332Z,17.22
2023-08-05T03:51:33.993Z,17.14
2023-08-05T03:53:09.891Z,17.12
2023-08-05T03:54:41.692Z,16.95
2023-08-05T03:56:14.718Z,16.86
2023-08-05T03:57:48.205Z,17.16
2023-08-05T03:59:21.579Z,17.14
2023-08-05T04:00:54.147Z,17.29
2023-08-05T04:02:26.322Z,16.96
2023-08-05T04:03:57.998Z,16.69
2023-08-05T04:05:30.337Z,16.81
2023-08-05T04:07:01.927Z,17.00
2023-08-05T04:08:33.467Z,16.93
2023-08-05T04:10:07.383Z,17.17
2023-08-05T04:11:39.109Z,16.97
2023-08-05T04:13:12.804Z,16.98
2023-08-05T04:14:45.431Z,17.23
2023-08-05T04:16:17.737Z,17.29
2023-08-05T04:17:49.902Z,17.26
2023-08-05T04:19:23.484Z,17.08
2023-08-05T04:20:56.601Z,17.01
2023-08-05T04:22:28.292Z,17.16
2023-08-05T04:24:02.281Z,17.29
2023-08-05T04:25:34.041Z,17.15
2023-08-05T04:27:05.865Z,17.19
2023-08-05T04:28:37.472Z,17.30
2023-08-05T04:30:09.466Z,17.31
2023-08-05T04:31:43.634Z,17.36
2023-08-05T04:33:15.570Z,17.38
2023-08-05T04:34:47.245Z,17.35
2023-08-05T04:36:18.781Z,17.36
2023-08-05T04:37:50.363Z,17.29
2023-08-05T04:39:22.787Z,16.95
2023-08-05T04:40:54.443Z,17.01
2023-08-05T04:42:25.988Z,16.74
2023-08-05T04:44:00.256Z,16.69
2023-08-05T04:45:31.766Z,16.85
2023-08-05T04:47:03.504Z,16.65
2023-08-05T04:48:35.069Z,16.33
2023-08-05T04:50:07.109Z,16.79
2023-08-05T04:51:38.976Z,16.81
2023-08-05T04:53:10.593Z,16.95
2023-08-05T04:54:44.621Z,16.67
2023-08-05T04:56:17.560Z,16.89
2023-08-05T04:57:56.139Z,16.59
2023-08-05T04:59:27.717Z,16.75
2023-08-05T05:00:59.440Z,17.01
2023-08-05T05:02:31.125Z,17.20
2023-08-05T05:04:03.098Z,17.12
2023-08-05T05:05:36.592Z,17.17
2023-08-05T05:07:08.220Z,17.05
2023-08-05T05:08:39.845Z,17.01
2023-08-05T05:10:11.409Z,16.59
2023-08-05T05:11:43.111Z,16.44
2023-08-05T05:13:15.010Z,16.57
2023-08-05T05:14:47.729Z,16.94
2023-08-05T05:16:19.654Z,17.11
2023-08-05T05:17:51.916Z,17.31
2023-08-05T05:19:23.616Z,17.31
2023-08-05T05:20:55.878Z,17.34
2023-08-05T05:22:27.504Z,17.26
2023-08-05T05:23:59.096Z,17.29
2023-08-05T05:25:30.640Z,17.08
2023-08-05T05:27:02.517Z,17.28
2023-08-05T05:28:34.114Z,17.28
2023-08-05T05:30:06.164Z,17.35
2023-08-05T05:31:37.916Z,17.21
2023-08-05T05:33:09.661Z,17.31
2023-08-05T05:34:41.280Z,16.98
2023-08-05T05:36:12.890Z,17.29
2023-08-05T05:37:44.435Z,17.44
2023-08-05T05:39:16.100Z,17.42
2023-08-05T05:40:47.691Z,17.63
2023-08-05T05:42:19.298Z,17.49
2023-08-05T05:43:50.884Z,17.54
2023-08-05T05:45:22.608Z,17.53
2023-08-05T05:46:54.691Z,17.55
2023-08-05T05:48:26.510Z,17.45
2023-08-05T05:49:58.123Z,17.59
2023-08-05T05:51:29.866Z,17.59
2023-08-05T05:53:01.444Z,17.47
2023-08-05T05:54:33.034Z,17.60
2023-08-05T05:56:06.175Z,17.83
2023-08-05T05:57:38.140Z,18.01
2023-08-05T05:59:09.697Z,18.03
2023-08-05T06:00:41.376Z,17.87
2023-08-05T06:02:13.055Z,17.95
2023-08-05T06:03:44.760Z,17.70
2023-08-05T06:05:16.415Z,17.47
2023-08-05T06:06:49.821Z,17.20
2023-08-05T06:08:21.793Z,17.07
2023-08-05T06:09:53.467Z,17.19
2023-08-05T06:11:25.197Z,17.40
2023-08-05T06:12:58.124Z,17.50
2023-08-05T06:14:30.681Z,17.79
2023-08-05T06:16:02.377Z,17.79
2023-08-05T06:17:34.168Z,17.65
2023-08-05T06:19:05.796Z,17.66
2023-08-05T06:20:37.930Z,17.35
2023-08-05T06:22:09.493Z,16.85
2023-08-05T06:23:41.054Z,17.41
2023-08-05T06:25:12.671Z,17.10
2023-08-05T06:26:44.218Z,17.22
2023-08-05T06:28:15.991Z,17.37
2023-08-05T06:29:47.734Z,17.79
2023-08-05T06:31:19.361Z,17.98
2023-08-05T06:32:51.211Z,18.02
2023-08-05T06:34:23.390Z,18.19
2023-08-05T06:35:56.038Z,18.03
2023-08-05T06:37:27.683Z,17.86
2023-08-05T06:38:59.364Z,18.28
2023-08-05T06:40:31.050Z,18.30
2023-08-05T06:42:02.855Z,18.37
2023-08-05T06:43:39.240Z,18.20
2023-08-05T06:45:11.393Z,18.35
2023-08-05T06:46:43.054Z,18.16
2023-08-05T06:48:14.741Z,18.16
2023-08-05T06:49:46.347Z,18.28
2023-08-05T06:51:17.931Z,17.84
2023-08-05T06:52:49.484Z,17.79
2023-08-05T06:54:22.561Z,18.01
2023-08-05T06:56:12.510Z,17.97
2023-08-05T06:57:46.196Z,18.28
2023-08-05T06:59:17.745Z,18.18
2023-08-05T07:00:53.479Z,18.12
2023-08-05T07:02:26.411Z,18.10
2023-08-05T07:03:58.039Z,17.99
2023-08-05T07:05:30.531Z,18.00
2023-08-05T07:07:02.290Z,17.80
2023-08-05T07:08:33.821Z,18.25
2023-08-05T07:10:09.028Z,18.44
2023-08-05T07:11:40.742Z,18.70
2023-08-05T07:13:12.340Z,18.97
2023-08-05T07:14:46.129Z,18.93
2023-08-05T07:16:17.757Z,18.94
2023-08-05T07:17:49.424Z,18.52
2023-08-05T07:19:21.113Z,18.45
2023-08-05T07:20:53.426Z,18.86
2023-08-05T07:22:25.119Z,19.25
2023-08-05T07:23:56.698Z,19.30
2023-08-05T07:25:28.317Z,19.07
2023-08-05T07:26:59.957Z,19.28
2023-08-05T07:28:31.564Z,19.34
2023-08-05T07:30:03.366Z,18.75
2023-08-05T07:31:35.040Z,19.18
2023-08-05T07:33:10.643Z,19.44
2023-08-05T07:34:42.303Z,18.80
2023-08-05T07:36:16.643Z,18.89
2023-08-05T07:37:48.608Z,18.95
2023-08-05T07:39:20.630Z,18.97
2023-08-05T07:40:56.570Z,19.49
2023-08-05T07:42:28.972Z,19.70
2023-08-05T07:44:02.193Z,19.65
2023-08-05T07:45:37.062Z,19.47
2023-08-05T07:47:10.124Z,19.59
2023-08-05T07:48:43.381Z,19.31
2023-08-05T07:50:22.977Z,19.02
2023-08-05T07:51:55.138Z,19.26
2023-08-05T07:53:26.667Z,19.30
2023-08-05T07:54:59.418Z,19.60
2023-08-05T07:56:31.170Z,19.29
2023-08-05T07:58:04.077Z,19.79
2023-08-05T07:59:35.923Z,19.77
2023-08-05T08:01:08.334Z,20.02
2023-08-05T08:02:45.018Z,20.17
2023-08-05T08:04:16.779Z,19.74
2023-08-05T08:05:48.453Z,20.54
2023-08-05T08:07:20.070Z,20.39
2023-08-05T08:08:52.496Z,20.74
2023-08-05T08:10:26.334Z,20.82
2023-08-05T08:12:00.095Z,21.02
2023-08-05T08:13:31.804Z,20.10
2023-08-05T08:15:04.352Z,20.69
2023-08-05T08:16:36.009Z,20.87
2023-08-05T08:18:10.258Z,21.01
2023-08-05T08:19:41.972Z,20.98
2023-08-05T08:21:13.600Z,20.87
2023-08-05T08:22:45.172Z,20.40
2023-08-05T08:24:16.787Z,20.45
2023-08-05T08:25:48.460Z,20.25
2023-08-05T08:27:20.096Z,20.08
2023-08-05T08:28:51.951Z,20.24
2023-08-05T08:30:23.529Z,19.77
2023-08-05T08:31:55.314Z,19.89
2023-08-05T08:33:29.126Z,20.35
2023-08-05T08:35:00.827Z,21.14
2023-08-05T08:36:32.410Z,22.44
2023-08-05T08:38:04.025Z,21.34
2023-08-05T08:39:35.606Z,21.25
2023-08-05T08:41:07.253Z,21.35
2023-08-05T08:42:39.859Z,21.27
2023-08-05T08:44:12.920Z,21.38
2023-08-05T08:45:45.631Z,21.52
2023-08-05T08:47:18.429Z,21.28
2023-08-05T08:48:51.143Z,21.50
2023-08-05T08:50:23.195Z,21.65
2023-08-05T08:51:55.458Z,21.34
2023-08-05T08:53:27.502Z,20.76
2023-08-05T08:54:59.325Z,21.13
2023-08-05T08:56:31.908Z,21.13
2023-08-05T08:58:03.731Z,21.59
2023-08-05T08:59:35.297Z,21.89
2023-08-05T09:01:08.231Z,21.68
2023-08-05T09:02:40.112Z,21.72
2023-08-05T09:04:12.852Z,20.86
2023-08-05T09:05:47.309Z,20.70
2023-08-05T09:07:18.987Z,20.89
2023-08-05T09:08:51.588Z,21.17
2023-08-05T09:10:24.501Z,21.65
2023-08-05T09:11:56.854Z,21.97
2023-08-05T09:13:28.519Z,21.83
2023-08-05T09:15:00.187Z,21.94
2023-08-05T09:16:32.046Z,22.33
2023-08-05T09:18:08.952Z,22.58
2023-08-05T09:19:44.028Z,23.08
2023-08-05T09:21:28.767Z,23.05
2023-08-05T09:23:03.560Z,22.83
2023-08-05T09:24:35.375Z,22.34
2023-08-05T09:26:06.990Z,22.59
2023-08-05T09:27:48.017Z,22.78
2023-08-05T09:29:22.445Z,23.06
2023-08-05T09:30:54.292Z,23.31
2023-08-05T09:32:37.178Z,22.18
2023-08-05T09:34:09.690Z,22.59
2023-08-05T09:35:41.312Z,22.61
2023-08-05T09:37:14.670Z,22.51
2023-08-05T09:38:46.459Z,21.78
2023-08-05T09:40:27.338Z,22.05
2023-08-05T09:42:00.410Z,22.65
2023-08-05T09:43:39.310Z,22.94
2023-08-05T09:45:13.531Z,22.79
2023-08-05T09:46:49.326Z,22.43
2023-08-05T09:48:24.731Z,22.40
2023-08-05T09:49:57.497Z,22.23
2023-08-05T09:51:29.815Z,22.55
2023-08-05T09:53:04.946Z,22.02
2023-08-05T09:54:37.828Z,21.92
2023-08-05T09:56:11.461Z,22.07
2023-08-05T09:57:44.088Z,22.04
2023-08-05T09:59:17.213Z,22.22
2023-08-05T10:00:51.446Z,22.45
2023-08-05T10:02:26.912Z,22.51
2023-08-05T10:04:00.136Z,22.59
2023-08-05T10:05:31.929Z,22.52
2023-08-05T10:07:04.486Z,22.73
2023-08-05T10:08:37.501Z,22.73
2023-08-05T10:10:12.785Z,22.71
2023-08-05T10:11:44.734Z,22.50
2023-08-05T10:13:19.751Z,21.98
2023-08-05T10:14:53.172Z,22.48
2023-08-05T10:16:25.497Z,22.51
2023-08-05T10:17:58.454Z,21.91
2023-08-05T10:19:32.122Z,21.94
2023-08-05T10:21:08.653Z,21.93
2023-08-05T10:22:40.967Z,22.27
2023-08-05T10:24:12.554Z,22.25
2023-08-05T10:25:45.933Z,22.87
2023-08-05T10:27:17.657Z,23.14
2023-08-05T10:28:49.380Z,22.89
2023-08-05T10:30:21.090Z,22.66
2023-08-05T10:31:53.087Z,22.88
2023-08-05T10:33:28.029Z,23.09
2023-08-05T10:35:30.572Z,23.31
2023-08-05T10:37:03.036Z,23.44
2023-08-05T10:38:43.917Z,23.52
2023-08-05T10:40:38.084Z,23.55
2023-08-05T10:42:19.908Z,23.64
2023-08-05T10:43:51.666Z,23.50
2023-08-05T10:45:24.787Z,23.90
2023-08-05T10:46:56.394Z,24.11
2023-08-05T10:48:39.835Z,24.39
2023-08-05T10:50:15.357Z,24.45
2023-08-05T10:51:46.971Z,24.50
2023-08-05T10:53:18.697Z,24.55
2023-08-05T10:54:51.149Z,24.74
2023-08-05T10:56:38.882Z,24.29
2023-08-05T10:58:10.843Z,24.49
2023-08-05T10:59:58.803Z,24.89
2023-08-05T11:01:59.378Z,24.72
2023-08-05T11:03:33.624Z,24.64
2023-08-05T11:05:09.702Z,24.44
2023-08-05T11:06:41.762Z,24.19
2023-08-05T11:08:21.237Z,23.92
2023-08-05T11:09:55.811Z,24.45
2023-08-05T11:11:27.888Z,24.88
2023-08-05T11:13:00.297Z,24.89
2023-08-05T11:14:33.075Z,25.16
2023-08-05T11:16:04.714Z,25.31
2023-08-05T11:17:54.887Z,24.89
2023-08-05T11:19:26.530Z,24.68
2023-08-05T11:20:59.722Z,23.92
2023-08-05T11:22:36.778Z,23.73
2023-08-05T11:24:08.458Z,24.04
2023-08-05T11:25:40.034Z,24.23
2023-08-05T11:27:11.582Z,23.38
2023-08-05T11:28:47.061Z,24.27
2023-08-05T11:30:20.048Z,23.92
2023-08-05T11:31:52.725Z,24.10
2023-08-05T11:33:24.850Z,23.99
2023-08-05T11:35:02.720Z,23.96
2023-08-05T11:36:34.322Z,23.88
2023-08-05T11:38:05.908Z,23.56
2023-08-05T11:39:38.510Z,23.99
2023-08-05T11:41:10.922Z,23.64
2023-08-05T11:42:42.650Z,23.79
2023-08-05T11:44:18.403Z,23.72
2023-08-05T11:45:51.344Z,23.28
2023-08-05T11:47:22.963Z,23.44
2023-08-05T11:49:14.724Z,23.48
2023-08-05T11:50:46.763Z,23.48
2023-08-05T11:52:18.340Z,23.09
2023-08-05T11:53:49.901Z,23.17
2023-08-05T11:55:21.528Z,22.78
2023-08-05T11:56:53.356Z,22.83
2023-08-05T11:58:25.095Z,23.07
2023-08-05T12:00:05.898Z,22.91
2023-08-05T12:01:40.995Z,23.09
2023-08-05T12:03:13.244Z,23.00
2023-08-05T12:04:46.510Z,22.76
2023-08-05T12:06:20.385Z,22.59
2023-08-05T12:07:52.025Z,22.32
2023-08-05T12:09:23.608Z,21.82
2023-08-05T12:10:58.354Z,22.25
2023-08-05T12:12:29.952Z,22.08
2023-08-05T12:14:01.554Z,22.57
2023-08-05T12:15:33.156Z,22.59
2023-08-05T12:17:04.731Z,22.51
2023-08-05T12:18:43.148Z,22.57
2023-08-05T12:20:23.088Z,22.58
2023-08-05T12:21:54.689Z,22.10
2023-08-05T12:23:26.265Z,22.44
2023-08-05T12:24:57.820Z,22.56
2023-08-05T12:26:29.383Z,22.52
2023-08-05T12:28:04.915Z,22.52
2023-08-05T12:29:37.982Z,22.66
2023-08-05T12:31:09.762Z,22.59
2023-08-05T12:32:41.460Z,22.31
2023-08-05T12:34:13.043Z,22.49
2023-08-05T12:35:44.596Z,22.54
2023-08-05T12:37:16.188Z,22.41
2023-08-05T12:38:49.771Z,22.48
2023-08-05T12:40:21.527Z,22.31
2023-08-05T12:41:54.786Z,22.51
2023-08-05T12:43:26.389Z,22.59
2023-08-05T12:45:00.340Z,22.17
2023-08-05T12:46:31.926Z,22.46
2023-08-05T12:48:03.693Z,22.32
2023-08-05T12:49:37.242Z,22.45
2023-08-05T12:51:08.796Z,22.45
2023-08-05T12:52:40.410Z,22.34
2023-08-05T12:54:11.997Z,22.59
2023-08-05T12:55:43.583Z,22.65
2023-08-05T12:57:15.333Z,22.76
2023-08-05T12:58:46.970Z,22.77
2023-08-05T13:00:18.613Z,22.15
2023-08-05T13:01:50.249Z,22.51
2023-08-05T13:03:21.979Z,22.37
2023-08-05T13:04:53.657Z,22.73
2023-08-05T13:06:25.331Z,22.61
2023-08-05T13:07:57.053Z,22.66
2023-08-05T13:09:30.744Z,22.57
2023-08-05T13:11:02.280Z,22.57
2023-08-05T13:12:33.824Z,22.89
2023-08-05T13:14:05.534Z,22.78
2023-08-05T13:15:37.125Z,22.55
2023-08-05T13:17:08.764Z,22.60
2023-08-05T13:18:40.421Z,22.95
2023-08-05T13:20:12.227Z,23.03
2023-08-05T13:21:43.970Z,22.76
2023-08-05T13:23:15.577Z,23.14
2023-08-05T13:24:47.179Z,22.93
2023-08-05T13:26:19.000Z,23.10
2023-08-05T13:27:50.762Z,23.31
2023-08-05T13:29:22.344Z,23.23
2023-08-05T13:31:01.215Z,23.50
2023-08-05T13:32:32.883Z,23.69
2023-08-05T13:34:04.481Z,23.70
2023-08-05T13:35:36.117Z,23.54
2023-08-05T13:37:07.703Z,23.16
2023-08-05T13:38:39.505Z,22.84
2023-08-05T13:40:11.499Z,22.26
2023-08-05T13:41:43.125Z,22.72
2023-08-05T13:43:14.664Z,22.84
2023-08-05T13:44:46.281Z,23.25
2023-08-05T13:46:17.934Z,23.65
2023-08-05T13:47:52.304Z,23.96
2023-08-05T13:49:23.911Z,24.44
2023-08-05T13:51:02.829Z,24.48
2023-08-05T13:52:34.419Z,24.55
2023-08-05T13:54:06.854Z,24.47
2023-08-05T13:55:39.437Z,24.70
2023-08-05T13:57:10.979Z,24.61
2023-08-05T13:58:42.614Z,24.67
2023-08-05T14:00:14.333Z,24.60
2023-08-05T14:01:46.340Z,24.21
2023-08-05T14:03:18.005Z,24.30
2023-08-05T14:04:49.651Z,24.23
2023-08-05T14:06:21.196Z,24.29
2023-08-05T14:07:52.738Z,24.25
2023-08-05T14:09:24.254Z,24.24
2023-08-05T14:10:56.086Z,23.96
2023-08-05T14:12:27.644Z,24.08
2023-08-05T14:13:59.204Z,24.16
2023-08-05T14:15:33.888Z,24.41
2023-08-05T14:17:05.537Z,24.27
2023-08-05T14:18:37.185Z,24.43
2023-08-05T14:20:09.151Z,24.33
2023-08-05T14:21:40.827Z,24.20
2023-08-05T14:23:12.379Z,23.13
2023-08-05T14:24:43.961Z,23.85
2023-08-05T14:26:15.557Z,23.31
2023-08-05T14:27:49.224Z,23.86
2023-08-05T14:29:20.739Z,23.99
2023-08-05T14:30:52.285Z,24.14
2023-08-05T14:32:23.913Z,24.30
2023-08-05T14:33:55.481Z,24.35
2023-08-05T14:35:31.964Z,24.55
2023-08-05T14:37:03.634Z,24.32
2023-08-05T14:38:35.207Z,24.13
2023-08-05T14:40:07.877Z,24.06
2023-08-05T14:41:39.925Z,24.00
2023-08-05T14:43:11.560Z,24.22
2023-08-05T14:44:43.539Z,24.34
2023-08-05T14:46:15.221Z,23.99
2023-08-05T14:47:46.820Z,24.04
2023-08-05T14:49:18.476Z,24.06
2023-08-05T14:50:50.101Z,24.11
2023-08-05T14:52:21.670Z,24.02
2023-08-05T14:53:53.228Z,24.15
2023-08-05T14:55:24.776Z,24.12
2023-08-05T14:56:56.554Z,23.82
2023-08-05T14:58:28.294Z,23.44
2023-08-05T14:59:59.878Z,23.97
2023-08-05T15:01:32.145Z,24.15
2023-08-05T15:03:04.000Z,24.21
2023-08-05T15:04:35.781Z,24.12
2023-08-05T15:06:07.428Z,23.41
2023-08-05T15:07:39.088Z,23.66
2023-08-05T15:09:12.185Z,23.69
2023-08-05T15:10:43.776Z,23.26
2023-08-05T15:12:15.322Z,23.45
2023-08-05T15:13:48.322Z,23.64
2023-08-05T15:15:19.881Z,23.77
2023-08-05T15:16:51.485Z,23.91
2023-08-05T15:18:23.625Z,23.42
2023-08-05T15:19:55.348Z,23.71
2023-08-05T15:21:26.950Z,23.71
2023-08-05T15:22:58.521Z,23.50
2023-08-05T15:24:30.099Z,22.88
2023-08-05T15:26:02.987Z,23.46
2023-08-05T15:27:35.521Z,23.88
2023-08-05T15:29:07.160Z,24.03
2023-08-05T15:30:39.327Z,24.09
2023-08-05T15:32:10.999Z,24.27
2023-08-05T15:33:42.631Z,24.32
2023-08-05T15:35:14.356Z,24.34
2023-08-05T15:36:46.062Z,24.38
2023-08-05T15:38:17.889Z,23.29
2023-08-05T15:39:49.480Z,23.82
2023-08-05T15:41:22.670Z,24.06
2023-08-05T15:42:54.409Z,23.79
2023-08-05T15:44:25.938Z,23.73
2023-08-05T15:45:58.020Z,23.73
2023-08-05T15:47:29.848Z,23.81
2023-08-05T15:49:01.496Z,23.98
2023-08-05T15:50:36.094Z,23.87
2023-08-05T15:52:07.869Z,23.96
2023-08-05T15:53:39.382Z,24.09
2023-08-05T15:55:11.114Z,23.84
2023-08-05T15:56:42.663Z,23.83
2023-08-05T15:58:14.158Z,23.77
2023-08-05T15:59:45.994Z,23.59
2023-08-05T16:01:17.624Z,23.63
2023-08-05T16:02:49.234Z,23.54
2023-08-05T16:04:20.816Z,23.77
2023-08-05T16:06:00.273Z,23.56
2023-08-05T16:07:39.159Z,23.45
2023-08-05T16:09:11.113Z,23.29
2023-08-05T16:10:42.646Z,23.40
2023-08-05T16:12:14.379Z,23.22
2023-08-05T16:13:45.946Z,23.41
2023-08-05T16:15:17.632Z,23.63
2023-08-05T16:16:49.172Z,23.45
2023-08-05T16:18:20.773Z,23.63
2023-08-05T16:19:55.801Z,23.72
2023-08-05T16:21:27.487Z,23.73
2023-08-05T16:22:59.182Z,23.66
2023-08-05T16:24:30.767Z,23.52
2023-08-05T16:26:16.785Z,23.50
2023-08-05T16:27:48.353Z,23.56
2023-08-05T16:29:21.225Z,23.58
2023-08-05T16:30:53.635Z,23.45
2023-08-05T16:32:25.326Z,23.63
2023-08-05T16:33:57.311Z,23.60
2023-08-05T16:35:28.909Z,23.65
2023-08-05T16:37:00.727Z,23.67
2023-08-05T16:38:32.794Z,23.68
2023-08-05T16:40:05.117Z,23.73
2023-08-05T16:41:36.769Z,23.65
2023-08-05T16:43:08.281Z,23.59
2023-08-05T16:44:39.863Z,23.58
2023-08-05T16:46:11.623Z,23.47
2023-08-05T16:47:43.361Z,23.51
2023-08-05T16:49:15.328Z,23.59
2023-08-05T16:50:46.924Z,23.43
2023-08-05T16:52:18.503Z,23.50
2023-08-05T16:53:50.096Z,23.43
2023-08-05T16:55:23.192Z,23.37
2023-08-05T16:56:54.883Z,23.55
2023-08-05T16:58:26.548Z,23.59
2023-08-05T16:59:58.127Z,23.67
2023-08-05T17:01:29.688Z,23.56
2023-08-05T17:03:01.287Z,23.53
2023-08-05T17:04:32.888Z,23.44
2023-08-05T17:06:04.578Z,23.37
2023-08-05T17:07:36.229Z,23.48
2023-08-05T17:09:07.794Z,23.36
2023-08-05T17:10:39.388Z,23.22
2023-08-05T17:12:11.795Z,23.33
2023-08-05T17:13:43.391Z,23.47
2023-08-05T17:15:14.960Z,23.35
2023-08-05T17:16:46.562Z,23.35
2023-08-05T17:18:18.236Z,23.51
2023-08-05T17:19:49.809Z,23.49
2023-08-05T17:21:21.408Z,23.44
2023-08-05T17:22:52.964Z,23.35
2023-08-05T17:24:24.528Z,23.45
2023-08-05T17:25:58.085Z,23.48
2023-08-05T17:27:29.632Z,23.35
2023-08-05T17:29:01.285Z,23.12
2023-08-05T17:30:35.670Z,23.09
2023-08-05T17:32:08.034Z,23.05
2023-08-05T17:33:39.670Z,23.03
2023-08-05T17:35:11.254Z,23.01
2023-08-05T17:36:42.818Z,23.08
2023-08-05T17:38:14.422Z,22.72
2023-08-05T17:39:46.133Z,22.91
2023-08-05T17:41:17.720Z,22.95
2023-08-05T17:42:49.312Z,22.96
2023-08-05T17:44:20.881Z,22.95
2023-08-05T17:45:59.409Z,22.88
2023-08-05T17:47:31.160Z,22.90
2023-08-05T17:49:02.735Z,22.89
2023-08-05T17:50:34.491Z,22.78
2023-08-05T17:52:06.422Z,22.86
2023-08-05T17:53:38.090Z,22.86
2023-08-05T17:55:09.682Z,22.86
2023-08-05T17:56:42.022Z,22.48
2023-08-05T17:58:13.602Z,22.50
2023-08-05T17:59:45.262Z,22.52
2023-08-05T18:01:16.917Z,22.64
2023-08-05T18:02:48.517Z,22.63
2023-08-05T18:04:20.277Z,22.66
2023-08-05T18:05:58.929Z,22.58
2023-08-05T18:07:35.895Z,22.41
2023-08-05T18:09:07.578Z,22.47
2023-08-05T18:10:39.222Z,22.57
2023-08-05T18:12:10.847Z,22.54
2023-08-05T18:13:45.710Z,22.50
2023-08-05T18:15:17.234Z,22.50
2023-08-05T18:16:48.846Z,22.17
2023-08-05T18:18:20.388Z,22.01
2023-08-05T18:19:52.210Z,21.97
2023-08-05T18:21:25.625Z,22.15
2023-08-05T18:22:57.281Z,21.96
2023-08-05T18:24:28.781Z,21.89
2023-08-05T18:26:02.115Z,22.07
2023-08-05T18:27:33.996Z,22.17
2023-08-05T18:29:05.538Z,22.34
2023-08-05T18:30:37.548Z,22.42
2023-08-05T18:32:09.144Z,22.45
2023-08-05T18:33:40.708Z,22.25
2023-08-05T18:35:12.343Z,22.11
2023-08-05T18:36:43.920Z,21.91
2023-08-05T18:38:16.331Z,21.83
2023-08-05T18:39:48.023Z,21.89
2023-08-05T18:41:19.567Z,21.85
2023-08-05T18:42:51.134Z,21.59
2023-08-05T18:44:22.852Z,21.54
2023-08-05T18:45:57.549Z,21.62
2023-08-05T18:47:29.182Z,21.40
2023-08-05T18:49:03.492Z,21.50
2023-08-05T18:50:35.052Z,21.61
2023-08-05T18:52:06.946Z,21.48
2023-08-05T18:53:41.024Z,21.66
2023-08-05T18:55:12.679Z,21.08
2023-08-05T18:56:44.441Z,21.26
2023-08-05T18:58:16.376Z,21.33
2023-08-05T18:59:48.066Z,21.52
2023-08-05T19:01:19.788Z,21.57
2023-08-05T19:02:51.485Z,21.43
2023-08-05T19:04:23.106Z,21.49
2023-08-05T19:05:59.307Z,21.40
2023-08-05T19:07:32.669Z,21.43
2023-08-05T19:09:04.916Z,21.34
2023-08-05T19:10:40.783Z,21.35
2023-08-05T19:12:12.626Z,21.32
2023-08-05T19:13:44.603Z,21.32
2023-08-05T19:15:16.239Z,21.28
2023-08-05T19:16:47.924Z,21.01
2023-08-05T19:18:19.578Z,20.94
2023-08-05T19:19:51.230Z,20.64
2023-08-05T19:21:22.817Z,20.87
2023-08-05T19:22:54.836Z,20.71
2023-08-05T19:24:27.238Z,20.29
2023-08-05T19:26:03.582Z,20.48
2023-08-05T19:27:52.229Z,19.79
2023-08-05T19:29:25.761Z,19.98
2023-08-05T19:30:57.755Z,20.48
2023-08-05T19:32:29.459Z,20.62
2023-08-05T19:34:01.078Z,20.48
2023-08-05T19:35:32.712Z,20.15
2023-08-05T19:37:04.858Z,20.32
2023-08-05T19:38:36.482Z,20.47
2023-08-05T19:40:08.709Z,20.43
2023-08-05T19:41:40.408Z,20.06
2023-08-05T19:43:12.109Z,19.91
2023-08-05T19:44:47.821Z,20.24
2023-08-05T19:46:19.467Z,20.03
2023-08-05T19:47:51.252Z,20.20
2023-08-05T19:49:23.160Z,20.45
2023-08-05T19:51:10.950Z,19.91
2023-08-05T19:52:44.901Z,19.93
2023-08-05T19:54:16.447Z,19.64